Time;durP1;ratioP1;P1;durP2;ratioP2;P2;SDS_P1;SDS_P2;PMS_P1;PMS_P2;Temp;Humidity;BMP_temperature;BMP_pressure;BME280_temperature;BME280_humidity;BME280_pressure;Samples;Min_cycle;Max_cycle;Signal;HPM_P1;HPM_P2
2021/10/16 00:00:56;;;;;;;17.00;10.60;;;11.30;99.90;;;;;;5033268;28;20060;-77
2021/10/16 00:03:21;;;;;;;15.15;9.60;;;11.50;99.90;;;;;;5033137;28;20467;-77
2021/10/16 00:05:47;;;;;;;13.43;9.73;;;11.50;99.90;;;;;;5033129;28;20112;-77
2021/10/16 00:08:13;;;;;;;14.63;10.00;;;11.30;99.90;;;;;;5031864;28;20104;-77
2021/10/16 00:10:39;;;;;;;12.80;9.43;;;11.20;99.90;;;;;;5033074;28;20041;-77
2021/10/16 00:13:04;;;;;;;12.40;8.70;;;11.40;99.90;;;;;;5033023;28;20033;-77
2021/10/16 00:15:30;;;;;;;12.73;8.82;;;11.40;99.90;;;;;;5033076;28;20044;-77
2021/10/16 00:17:57;;;;;;;16.88;9.55;;;11.50;99.90;;;;;;5033088;28;20048;-77
2021/10/16 00:20:23;;;;;;;15.25;8.80;;;11.70;99.90;;;;;;5033136;28;20013;-77
2021/10/16 00:22:49;;;;;;;;;;;11.70;99.90;;;;;;5033516;28;20033;-77
2021/10/16 00:25:15;;;;;;;13.13;8.80;;;11.80;99.90;;;;;;5032965;28;19905;-77
2021/10/16 00:27:41;;;;;;;14.63;10.25;;;11.70;99.90;;;;;;5032972;28;20026;-77
2021/10/16 00:30:08;;;;;;;14.70;11.02;;;11.40;99.90;;;;;;5032949;28;20041;-77
2021/10/16 00:32:34;;;;;;;17.23;11.43;;;10.90;99.90;;;;;;5032603;28;20065;-77
2021/10/16 00:35:00;;;;;;;;;;;10.60;99.90;;;;;;5033347;28;20028;-76
2021/10/16 00:37:25;;;;;;;13.68;8.25;;;10.70;99.90;;;;;;5033269;28;19905;-77
2021/10/16 00:39:54;;;;;;;16.02;9.23;;;11.00;99.90;;;;;;5032978;28;20436;-77
2021/10/16 00:42:20;;;;;;;15.13;9.18;;;11.50;99.90;;;;;;5032737;28;20105;-77
2021/10/16 00:44:46;;;;;;;;;;;11.70;99.90;;;;;;5033230;28;20051;-77
2021/10/16 00:47:12;;;;;;;14.10;8.93;;;11.70;99.90;;;;;;5031500;28;19905;-77
2021/10/16 00:49:38;;;;;;;19.35;10.00;;;11.70;99.90;;;;;;5033781;28;20025;-77
2021/10/16 00:52:04;;;;;;;15.65;10.30;;;11.70;99.90;;;;;;5036352;28;20025;-77
2021/10/16 00:54:31;;;;;;;20.05;11.35;;;11.80;99.90;;;;;;5036447;28;20022;-76
2021/10/16 00:57:00;;;;;;;17.77;10.93;;;11.70;99.90;;;;;;5036266;28;20028;-77
2021/10/16 00:59:26;;;;;;;18.08;11.23;;;11.70;99.90;;;;;;5035025;28;20025;-76
2021/10/16 01:01:52;;;;;;;17.95;10.88;;;11.80;99.90;;;;;;5035002;28;20036;-77
2021/10/16 01:04:18;;;;;;;18.10;10.48;;;11.70;99.90;;;;;;5036172;28;20486;-77
2021/10/16 01:06:44;;;;;;;15.50;10.02;;;11.60;99.90;;;;;;5036143;28;20034;-77
2021/10/16 01:09:11;;;;;;;16.27;9.63;;;11.60;99.90;;;;;;5036082;28;20037;-77
2021/10/16 01:11:52;;;;;;;14.40;8.95;;;11.60;99.90;;;;;;5036313;28;20394;-77
2021/10/16 01:14:19;;;;;;;13.70;10.05;;;11.60;99.90;;;;;;5035884;28;20033;-77
2021/10/16 01:16:50;;;;;;;26.95;10.25;;;11.50;99.90;;;;;;5034704;28;20022;-77
2021/10/16 01:19:17;;;;;;;17.45;10.32;;;11.40;99.90;;;;;;5035926;28;20478;-77
2021/10/16 01:21:51;;;;;;;14.68;9.95;;;11.30;99.90;;;;;;5034585;28;20021;-77
2021/10/16 01:24:19;;;;;;;12.95;8.98;;;11.20;99.90;;;;;;5035918;28;20553;-76
2021/10/16 01:26:49;;;;;;;18.08;9.68;;;11.30;99.90;;;;;;5035860;28;20363;-77
2021/10/16 01:29:21;;;;;;;12.00;8.65;;;11.30;99.90;;;;;;5035746;28;20033;-76
2021/10/16 01:31:49;;;;;;;12.57;9.35;;;11.30;99.90;;;;;;5035700;28;20057;-77
2021/10/16 01:34:14;;;;;;;13.13;9.65;;;11.20;99.90;;;;;;5035619;28;20482;-77
2021/10/16 01:36:45;;;;;;;19.20;9.48;;;11.40;99.90;;;;;;5035638;28;20064;-77
2021/10/16 01:39:12;;;;;;;13.43;9.13;;;11.50;99.90;;;;;;5035495;28;20029;-77
2021/10/16 01:41:38;;;;;;;14.85;9.70;;;11.50;99.90;;;;;;5035505;28;20017;-77
2021/10/16 01:44:05;;;;;;;;;;;11.40;99.90;;;;;;5035947;28;20429;-77
2021/10/16 01:46:30;;;;;;;13.45;8.98;;;11.30;99.90;;;;;;5035520;28;19913;-77
2021/10/16 01:48:56;;;;;;;13.05;8.95;;;11.40;99.90;;;;;;5035432;28;20026;-76
2021/10/16 01:51:22;;;;;;;16.83;10.43;;;11.40;99.90;;;;;;5035539;28;20592;-76
2021/10/16 01:53:48;;;;;;;14.55;10.35;;;11.30;99.90;;;;;;5035209;28;20386;-77
2021/10/16 01:56:13;;;;;;;16.17;10.68;;;11.40;99.90;;;;;;5035505;28;20033;-77
2021/10/16 01:58:39;;;;;;;18.70;10.88;;;11.10;99.90;;;;;;5035367;28;20025;-76
2021/10/16 02:01:05;;;;;;;12.23;9.35;;;10.80;99.90;;;;;;5034546;28;20100;-76
2021/10/16 02:03:31;;;;;;;16.52;10.80;;;11.10;99.90;;;;;;5035630;28;20091;-77
2021/10/16 02:05:56;;;;;;;13.07;10.77;;;11.20;99.90;;;;;;5033797;28;20072;-77
2021/10/16 02:08:22;;;;;;;18.70;11.93;;;11.10;99.90;;;;;;5035133;28;20029;-77
2021/10/16 02:10:48;;;;;;;12.82;9.93;;;11.20;99.90;;;;;;5034925;28;20073;-76
2021/10/16 02:13:14;;;;;;;13.30;9.85;;;11.20;99.90;;;;;;5034859;28;20027;-76
2021/10/16 02:15:39;;;;;;;15.27;10.43;;;11.30;99.90;;;;;;5034895;28;20068;-77
2021/10/16 02:18:05;;;;;;;18.35;9.55;;;11.10;99.90;;;;;;5034959;28;20401;-77
2021/10/16 02:20:31;;;;;;;13.65;10.02;;;11.10;99.90;;;;;;5034791;28;20029;-76
2021/10/16 02:22:57;;;;;;;14.88;10.13;;;11.30;99.90;;;;;;5034719;28;20025;-77
2021/10/16 02:25:23;;;;;;;12.27;9.45;;;11.30;99.90;;;;;;5034693;28;20052;-77
2021/10/16 02:27:48;;;;;;;16.70;10.07;;;11.30;99.90;;;;;;5033431;28;20021;-77
2021/10/16 02:30:14;;;;;;;15.45;9.63;;;11.40;99.90;;;;;;5034869;28;20061;-77
2021/10/16 02:32:40;;;;;;;18.10;10.30;;;11.00;99.90;;;;;;5034110;28;20409;-77
2021/10/16 02:35:06;;;;;;;17.05;10.52;;;11.10;99.90;;;;;;5034655;28;20035;-77
2021/10/16 02:37:32;;;;;;;;;;;10.80;99.90;;;;;;5034821;28;20093;-77
2021/10/16 02:39:58;;;;;;;15.38;10.55;;;11.00;99.90;;;;;;5034403;28;20357;-77
2021/10/16 02:42:23;;;;;;;19.85;10.55;;;11.00;99.90;;;;;;5034406;28;20066;-76
2021/10/16 02:44:49;;;;;;;18.48;10.63;;;11.10;99.90;;;;;;5034377;28;20026;-78
2021/10/16 02:47:15;;;;;;;;;;;11.00;99.90;;;;;;5034717;28;20025;-77
2021/10/16 02:49:41;;;;;;;12.38;8.80;;;11.20;99.90;;;;;;5034202;28;20423;-77
2021/10/16 02:52:07;;;;;;;21.48;9.38;;;11.30;99.90;;;;;;5032835;28;20025;-77
2021/10/16 02:54:33;;;;;;;16.45;11.40;;;11.30;99.90;;;;;;5034119;28;20026;-77
2021/10/16 02:56:58;;;;;;;17.52;11.15;;;11.20;99.90;;;;;;5034377;28;20017;-77
2021/10/16 02:59:25;;;;;;;13.57;9.38;;;11.20;99.90;;;;;;5034364;28;20068;-78
2021/10/16 03:01:51;;;;;;;20.30;11.10;;;11.30;99.90;;;;;;5034190;28;20021;-77
2021/10/16 03:04:17;;;;;;;20.17;10.82;;;11.30;99.90;;;;;;5033977;28;20026;-77
2021/10/16 03:06:42;;;;;;;13.80;9.75;;;11.10;99.90;;;;;;5033985;28;20033;-77
2021/10/16 03:09:08;;;;;;;22.17;11.40;;;11.00;99.90;;;;;;5033910;28;20052;-77
2021/10/16 03:11:34;;;;;;;15.20;10.60;;;11.00;99.90;;;;;;5033686;28;20034;-77
2021/10/16 03:14:00;;;;;;;24.80;11.05;;;10.90;99.90;;;;;;5033410;28;20087;-77
2021/10/16 03:16:26;;;;;;;;;;;10.80;99.90;;;;;;5034321;28;20544;-77
2021/10/16 03:18:53;;;;;;;11.75;9.25;;;10.60;99.90;;;;;;5033844;28;19905;-77
2021/10/16 03:21:20;;;;;;;13.73;11.10;;;10.70;99.90;;;;;;5032396;28;20048;-77
2021/10/16 03:23:45;;;;;;;17.50;10.60;;;10.60;99.90;;;;;;5033635;28;20029;-77
2021/10/16 03:26:11;;;;;;;20.98;10.10;;;10.60;99.90;;;;;;5032336;28;20528;-77
2021/10/16 03:28:37;;;;;;;13.43;10.15;;;10.50;99.90;;;;;;5033666;28;20115;-77
2021/10/16 03:31:03;;;;;;;11.35;8.52;;;10.60;99.90;;;;;;5033284;28;20064;-77
2021/10/16 03:33:29;;;;;;;11.10;8.10;;;10.70;99.90;;;;;;5033523;28;20500;-77
2021/10/16 03:35:55;;;;;;;11.02;7.00;;;10.90;99.90;;;;;;5033515;28;20017;-77
2021/10/16 03:38:21;;;;;;;10.77;7.82;;;10.90;99.90;;;;;;5033763;28;20030;-77
2021/10/16 03:40:47;;;;;;;12.88;9.23;;;10.80;99.90;;;;;;5032156;28;20013;-77
2021/10/16 03:43:12;;;;;;;11.25;8.35;;;10.80;99.90;;;;;;5032102;28;20087;-77
2021/10/16 03:45:38;;;;;;;10.18;7.53;;;10.70;99.90;;;;;;5032063;28;20033;-77
2021/10/16 03:48:04;;;;;;;13.43;9.07;;;10.70;99.90;;;;;;5033497;28;20440;-77
2021/10/16 03:50:32;;;;;;;11.02;7.93;;;10.70;99.90;;;;;;5033422;28;20082;-77
2021/10/16 03:52:58;;;;;;;12.85;9.02;;;10.70;99.90;;;;;;5033283;28;20041;-77
2021/10/16 03:55:24;;;;;;;11.15;8.65;;;10.80;99.90;;;;;;5033279;28;20359;-77
2021/10/16 03:57:51;;;;;;;11.02;7.82;;;10.70;99.90;;;;;;5033727;28;20026;-77
2021/10/16 04:00:20;;;;;;;12.93;8.13;;;10.70;99.90;;;;;;5031877;28;20398;-77
2021/10/16 04:02:52;;;;;;;12.15;8.32;;;10.90;99.90;;;;;;5033189;28;20516;-77
2021/10/16 04:05:18;;;;;;;14.52;9.07;;;10.90;99.90;;;;;;5033265;28;20034;-77
2021/10/16 04:07:44;;;;;;;11.68;8.90;;;10.70;99.90;;;;;;5033191;28;20375;-77
2021/10/16 04:10:10;;;;;;;;;;;10.90;99.90;;;;;;5033517;28;20030;-77
2021/10/16 04:12:36;;;;;;;11.10;7.78;;;10.80;99.90;;;;;;5033226;28;19916;-77
2021/10/16 04:15:02;;;;;;;10.38;7.00;;;10.80;99.90;;;;;;5031816;28;20032;-76
2021/10/16 04:17:28;;;;;;;11.00;8.38;;;11.00;99.90;;;;;;5031763;28;20075;-77
2021/10/16 04:19:53;;;;;;;14.18;7.93;;;11.00;99.90;;;;;;5033086;28;20021;-77
2021/10/16 04:22:19;;;;;;;12.20;8.55;;;11.00;99.90;;;;;;5032999;28;20029;-77
2021/10/16 04:24:45;;;;;;;12.27;8.50;;;11.00;99.90;;;;;;5034050;28;20018;-77
2021/10/16 04:27:13;;;;;;;11.73;8.27;;;11.00;99.90;;;;;;5035623;28;20030;-77
2021/10/16 04:29:39;;;;;;;14.00;8.48;;;10.90;99.90;;;;;;5036887;28;20029;-76
2021/10/16 04:32:05;;;;;;;11.98;8.73;;;10.90;99.90;;;;;;5035347;28;20099;-77
2021/10/16 04:34:31;;;;;;;12.88;9.20;;;10.90;99.90;;;;;;5036733;28;20034;-77
2021/10/16 04:36:57;;;;;;;12.07;8.05;;;10.90;99.90;;;;;;5036778;28;20033;-76
2021/10/16 04:39:25;;;;;;;12.02;9.07;;;10.80;99.90;;;;;;5036598;28;20025;-77
2021/10/16 04:41:51;;;;;;;14.10;8.93;;;10.90;99.90;;;;;;5035389;28;20029;-77
2021/10/16 04:44:16;;;;;;;15.00;9.10;;;10.70;99.90;;;;;;5036572;28;20028;-77
2021/10/16 04:46:42;;;;;;;13.27;8.68;;;10.70;99.90;;;;;;5036880;28;20030;-76
2021/10/16 04:49:08;;;;;;;11.60;8.10;;;10.80;99.90;;;;;;5035243;28;20397;-77
2021/10/16 04:51:35;;;;;;;18.77;8.73;;;10.80;99.90;;;;;;5036494;28;20101;-77
2021/10/16 04:54:01;;;;;;;14.15;9.35;;;10.90;99.90;;;;;;5036348;28;20535;-77
2021/10/16 04:56:26;;;;;;;15.43;9.63;;;10.80;99.90;;;;;;5036319;28;20025;-77
2021/10/16 04:58:52;;;;;;;11.30;8.65;;;10.70;99.90;;;;;;5035077;28;20108;-77
2021/10/16 05:01:18;;;;;;;11.38;8.30;;;10.60;99.90;;;;;;5034999;28;20057;-77
2021/10/16 05:03:44;;;;;;;11.60;8.65;;;10.70;99.90;;;;;;5036254;28;20104;-77
2021/10/16 05:06:09;;;;;;;15.60;8.85;;;10.70;99.90;;;;;;5034919;28;20489;-77
2021/10/16 05:08:36;;;;;;;14.13;10.40;;;10.70;99.90;;;;;;5036202;28;20378;-77
2021/10/16 05:11:02;;;;;;;14.85;8.93;;;10.50;99.90;;;;;;5034829;28;20029;-77
2021/10/16 05:13:28;;;;;;;;;;;10.40;99.90;;;;;;5035442;28;20037;-77
2021/10/16 05:15:54;;;;;;;12.13;8.52;;;10.70;99.90;;;;;;5036014;28;20365;-77
2021/10/16 05:18:22;;;;;;;15.07;8.88;;;10.90;99.90;;;;;;5034670;28;20030;-77
2021/10/16 05:20:49;;;;;;;12.95;8.77;;;10.90;99.90;;;;;;5035909;28;20032;-77
2021/10/16 05:23:15;;;;;;;12.32;8.25;;;10.90;99.90;;;;;;5035902;28;20025;-78
2021/10/16 05:25:41;;;;;;;17.35;8.10;;;11.00;99.90;;;;;;5035952;28;20432;-76
2021/10/16 05:28:06;;;;;;;13.55;8.43;;;10.70;99.90;;;;;;5035967;28;20025;-77
2021/10/16 05:30:32;;;;;;;17.35;10.82;;;10.70;99.90;;;;;;5035763;28;20417;-77
2021/10/16 05:32:58;;;;;;;12.95;9.77;;;10.70;99.90;;;;;;5035179;28;20080;-77
2021/10/16 05:35:25;;;;;;;14.30;8.60;;;10.50;99.90;;;;;;5034565;28;20052;-77
2021/10/16 05:37:50;;;;;;;11.75;8.18;;;10.70;99.90;;;;;;5035504;28;20093;-77
2021/10/16 05:40:18;;;;;;;13.82;8.05;;;10.80;99.90;;;;;;5035763;28;20025;-77
2021/10/16 05:42:44;;;;;;;13.75;8.90;;;10.80;99.90;;;;;;5035469;28;20539;-77
2021/10/16 05:45:10;;;;;;;16.05;10.60;;;10.60;99.90;;;;;;5035447;28;20095;-77
2021/10/16 05:47:36;;;;;;;52.95;11.35;;;10.20;99.90;;;;;;5035446;28;20482;-77
2021/10/16 05:50:06;;;;;;;15.02;9.38;;;9.90;99.90;;;;;;5035501;28;20030;-76
2021/10/16 05:52:32;;;;;;;15.68;8.93;;;10.20;99.90;;;;;;5033903;28;20061;-77
2021/10/16 05:54:58;;;;;;;13.70;7.78;;;10.50;99.90;;;;;;5035323;28;20053;-76
2021/10/16 05:57:23;;;;;;;12.63;8.82;;;10.70;99.90;;;;;;5035228;28;20024;-77
2021/10/16 05:59:49;;;;;;;15.27;8.43;;;10.70;99.90;;;;;;5035573;28;20033;-77
2021/10/16 06:02:15;;;;;;;13.27;8.85;;;10.70;99.90;;;;;;5035178;28;20482;-77
2021/10/16 06:04:40;;;;;;;11.98;8.82;;;10.70;99.90;;;;;;5035187;28;20021;-77
2021/10/16 06:07:06;;;;;;;11.77;8.63;;;10.50;99.90;;;;;;5035172;28;20421;-77
2021/10/16 06:09:32;;;;;;;11.88;7.72;;;10.50;99.90;;;;;;5035383;28;20076;-77
2021/10/16 06:11:58;;;;;;;10.77;7.57;;;10.40;99.90;;;;;;5034971;28;20112;-77
2021/10/16 06:14:23;;;;;;;10.57;7.95;;;10.50;99.90;;;;;;5034918;28;20030;-77
2021/10/16 06:16:49;;;;;;;16.05;8.75;;;10.40;99.90;;;;;;5034867;28;20025;-77
2021/10/16 06:19:15;;;;;;;62.78;11.07;;;10.30;99.90;;;;;;5033555;28;20025;-77
2021/10/16 06:21:41;;;;;;;17.27;9.40;;;10.00;99.90;;;;;;5034744;28;20040;-77
2021/10/16 06:24:07;;;;;;;18.08;8.85;;;9.70;99.90;;;;;;5033460;28;20124;-77
2021/10/16 06:26:33;;;;;;;10.70;8.40;;;9.60;99.90;;;;;;5034733;28;20030;-77
2021/10/16 06:28:59;;;;;;;17.08;8.63;;;9.50;99.90;;;;;;5034629;28;20029;-77
2021/10/16 06:31:24;;;;;;;13.63;8.32;;;9.50;99.90;;;;;;5033090;28;20049;-76
2021/10/16 06:33:50;;;;;;;37.38;11.02;;;9.50;99.90;;;;;;5034441;28;20140;-77
2021/10/16 06:36:16;;;;;;;10.80;8.23;;;9.40;99.90;;;;;;5033188;28;20030;-77
2021/10/16 06:38:42;;;;;;;20.02;11.30;;;9.20;99.90;;;;;;5034450;28;20024;-77
2021/10/16 06:41:07;;;;;;;20.98;8.98;;;9.20;99.90;;;;;;5034382;28;20445;-77
2021/10/16 06:43:33;;;;;;;30.30;9.93;;;9.20;99.90;;;;;;5034398;28;20026;-77
2021/10/16 06:45:59;;;;;;;13.32;8.38;;;9.20;99.90;;;;;;5034573;28;20048;-77
2021/10/16 06:48:24;;;;;;;11.80;6.85;;;9.30;99.90;;;;;;5034687;28;20427;-77
2021/10/16 06:50:50;;;;;;;32.92;10.27;;;9.70;99.90;;;;;;5034195;28;20030;-77
2021/10/16 06:53:16;;;;;;;11.77;8.18;;;9.60;99.90;;;;;;5034063;28;20482;-77
2021/10/16 06:55:42;;;;;;;10.88;7.50;;;9.40;99.90;;;;;;5034423;28;20057;-77
2021/10/16 06:58:08;;;;;;;9.60;6.43;;;9.60;99.90;;;;;;5032818;28;20113;-77
2021/10/16 07:00:34;;;;;;;14.48;6.63;;;10.00;99.90;;;;;;5034045;28;20545;-77
2021/10/16 07:03:02;;;;;;;11.00;6.47;;;10.50;99.90;;;;;;5032729;28;20079;-77
2021/10/16 07:05:28;;;;;;;10.95;6.20;;;10.40;99.90;;;;;;5032623;28;20041;-76
2021/10/16 07:07:54;;;;;;;9.20;6.22;;;10.70;99.90;;;;;;5033916;28;20030;-77
2021/10/16 07:10:20;;;;;;;14.65;6.85;;;11.00;99.90;;;;;;5033920;28;20106;-77
2021/10/16 07:12:46;;;;;;;12.77;7.13;;;11.00;99.90;;;;;;5032505;28;20052;-77
2021/10/16 07:15:11;;;;;;;12.75;6.32;;;11.10;99.90;;;;;;5034025;28;20493;-77
2021/10/16 07:17:37;;;;;;;11.00;7.00;;;11.00;99.90;;;;;;5033756;28;20022;-77
2021/10/16 07:20:05;;;;;;;12.77;7.15;;;11.10;99.90;;;;;;5033756;28;20036;-77
2021/10/16 07:22:31;;;;;;;13.48;6.80;;;10.80;99.90;;;;;;5033640;28;20033;-77
2021/10/16 07:24:56;;;;;;;10.25;6.78;;;10.70;99.90;;;;;;5033668;28;20025;-76
2021/10/16 07:27:22;;;;;;;27.77;7.72;;;10.40;99.90;;;;;;5033621;28;20505;-77
2021/10/16 07:29:48;;;;;;;9.77;6.18;;;10.60;99.90;;;;;;5032276;28;20025;-77
2021/10/16 07:32:15;;;;;;;13.45;6.13;;;10.90;99.90;;;;;;5033341;28;20120;-77
2021/10/16 07:34:41;;;;;;;14.57;6.63;;;11.30;99.90;;;;;;5033183;28;20021;-77
2021/10/16 07:37:08;;;;;;;10.75;6.00;;;11.20;99.90;;;;;;5033685;28;20053;-77
2021/10/16 07:39:34;;;;;;;34.95;7.00;;;11.60;99.90;;;;;;5033402;28;20025;-77
2021/10/16 07:42:00;;;;;;;10.90;6.35;;;11.70;99.90;;;;;;5033575;28;20044;-77
2021/10/16 07:44:26;;;;;;;9.95;6.30;;;11.70;99.90;;;;;;5033071;28;20452;-77
2021/10/16 07:46:53;;;;;;;54.88;9.18;;;11.90;99.90;;;;;;5032073;28;20061;-77
2021/10/16 07:49:19;;;;;;;16.63;6.40;;;12.00;99.90;;;;;;5015525;28;20033;-77
2021/10/16 07:51:45;;;;;;;80.38;8.50;;;11.80;99.90;;;;;;5032034;28;20034;-77
2021/10/16 07:54:11;;;;;;;11.13;6.20;;;11.20;99.90;;;;;;5033206;28;20055;-78
2021/10/16 07:56:36;;;;;;;17.45;6.65;;;11.70;99.90;;;;;;5033795;28;20026;-77
2021/10/16 07:59:02;;;;;;;50.30;12.05;;;12.20;99.90;;;;;;5032891;28;20478;-77
2021/10/16 08:01:28;;;;;;;13.32;6.15;;;12.20;99.90;;;;;;5033219;28;20025;-77
2021/10/16 08:03:53;;;;;;;20.25;5.57;;;12.30;99.90;;;;;;5033210;28;20441;-77
2021/10/16 08:06:20;;;;;;;14.43;7.53;;;12.30;99.90;;;;;;5033666;28;20037;-77
2021/10/16 08:08:46;;;;;;;86.78;8.90;;;11.80;99.90;;;;;;5031843;28;20175;-77
2021/10/16 08:11:12;;;;;;;20.63;8.00;;;12.00;99.90;;;;;;5033086;28;20496;-77
2021/10/16 08:13:38;;;;;;;11.25;6.75;;;11.60;99.90;;;;;;5032978;28;20116;-77
2021/10/16 08:16:04;;;;;;;18.70;7.40;;;11.80;99.90;;;;;;5031759;28;20028;-78
2021/10/16 08:18:30;;;;;;;29.95;5.63;;;12.20;99.90;;;;;;5031756;28;20029;-77
2021/10/16 08:20:56;;;;;;;61.03;7.05;;;12.10;99.90;;;;;;5033499;28;20026;-77
2021/10/16 08:23:22;;;;;;;19.02;6.72;;;12.00;99.90;;;;;;5033090;28;20030;-77
2021/10/16 08:25:47;;;;;;;88.63;9.30;;;11.80;99.90;;;;;;5032945;28;20383;-78
2021/10/16 08:28:15;;;;;;;58.50;8.98;;;11.90;99.90;;;;;;5016830;28;20535;-77
2021/10/16 08:30:50;;;;;;;101.60;8.20;;;12.00;99.90;;;;;;5052821;28;20424;-78
2021/10/16 08:33:17;;;;;;;51.78;8.85;;;12.10;99.90;;;;;;5053312;28;20025;-77
2021/10/16 08:35:43;;;;;;;66.20;9.63;;;12.10;99.90;;;;;;5053307;28;20030;-77
2021/10/16 08:38:08;;;;;;;42.40;7.05;;;12.10;99.90;;;;;;5052956;28;20070;-77
2021/10/16 08:40:34;;;;;;;102.75;9.32;;;12.30;99.90;;;;;;5051856;28;20036;-77
2021/10/16 08:43:01;;;;;;;85.43;9.27;;;12.60;99.90;;;;;;5053102;28;20385;-78
2021/10/16 08:45:27;;;;;;;29.40;7.05;;;12.60;99.90;;;;;;5053031;28;20497;-77
2021/10/16 08:47:52;;;;;;;;;;;12.90;99.90;;;;;;5053477;28;20036;-77
2021/10/16 08:50:19;;;;;;;69.95;10.90;;;12.70;99.90;;;;;;5052896;28;19908;-77
2021/10/16 08:52:45;;;;;;;39.53;9.13;;;12.70;99.90;;;;;;5052971;28;20457;-77
2021/10/16 08:55:13;;;;;;;;;;;12.80;99.90;;;;;;5053520;28;20025;-77
2021/10/16 08:57:41;;;;;;;35.40;8.45;;;12.90;99.90;;;;;;5052614;28;19915;-77
2021/10/16 09:00:35;;;;;;;58.35;10.48;;;13.10;99.90;;;;;;5051607;28;20111;-77
2021/10/16 09:03:19;;;;;;;32.88;8.38;;;13.20;99.90;;;;;;5051837;28;20036;-78
2021/10/16 09:06:05;;;;;;;59.17;9.43;;;13.30;99.90;;;;;;5053166;28;20053;-77
2021/10/16 09:08:36;;;;;;;14.18;9.27;;;13.20;99.90;;;;;;5051119;28;20029;-77
2021/10/16 09:11:25;;;;;;;44.30;9.00;;;13.90;99.90;;;;;;5053663;28;20029;-77
2021/10/16 09:13:54;;;;;;;16.20;8.57;;;14.30;99.90;;;;;;5056520;28;20112;-77
2021/10/16 09:16:22;;;;;;;12.70;8.70;;;13.90;99.90;;;;;;5056555;28;20028;-77
2021/10/16 09:18:59;;;;;;;17.02;8.52;;;14.30;99.90;;;;;;5055796;28;20111;-77
2021/10/16 09:21:28;;;;;;;14.93;9.32;;;14.70;99.90;;;;;;5056240;28;20027;-77
2021/10/16 09:24:06;;;;;;;54.92;10.73;;;14.20;99.90;;;;;;5056249;28;20430;-78
2021/10/16 09:26:34;;;;;;;19.45;9.65;;;14.00;99.90;;;;;;5054590;28;20079;-78
2021/10/16 09:29:02;;;;;;;44.53;11.13;;;14.20;99.90;;;;;;5055444;28;20366;-78
2021/10/16 09:31:40;;;;;;;55.53;12.63;;;14.30;99.90;;;;;;5045994;28;20057;-77
2021/10/16 09:34:06;;;;;;;22.77;10.80;;;13.80;99.90;;;;;;5056200;28;20051;-78
2021/10/16 09:36:34;;;;;;;18.15;9.80;;;14.00;99.90;;;;;;5056096;28;20029;-78
2021/10/16 09:39:01;;;;;;;39.63;11.40;;;14.70;99.90;;;;;;5055415;28;20056;-78
2021/10/16 09:41:28;;;;;;;21.30;10.18;;;15.00;99.90;;;;;;5056067;28;20025;-77
2021/10/16 09:43:54;;;;;;;18.13;10.40;;;14.90;99.90;;;;;;5055754;28;20500;-78
2021/10/16 09:46:22;;;;;;;34.53;11.52;;;15.40;99.90;;;;;;5055365;28;20029;-77
2021/10/16 09:48:49;;;;;;;41.25;12.02;;;16.00;99.90;;;;;;5053915;28;20024;-78
2021/10/16 09:51:15;;;;;;;23.33;11.23;;;16.00;99.90;;;;;;5055503;28;20515;-78
2021/10/16 09:53:46;;;;;;;15.43;9.63;;;16.80;99.90;;;;;;5055242;28;20017;-78
2021/10/16 09:56:13;;;;;;;20.38;9.63;;;17.70;99.90;;;;;;5055901;28;20476;-79
2021/10/16 09:58:40;;;;;;;31.83;11.52;;;16.90;99.90;;;;;;5055479;28;20017;-78
2021/10/16 10:01:09;;;;;;;19.23;10.93;;;16.50;99.90;;;;;;5054502;28;20029;-78
2021/10/16 10:03:39;;;;;;;24.77;11.27;;;17.00;99.90;;;;;;5055383;28;20107;-78
2021/10/16 10:06:06;;;;;;;23.10;10.23;;;17.70;99.90;;;;;;5055555;28;20083;-78
2021/10/16 10:08:33;;;;;;;33.13;11.60;;;17.20;99.90;;;;;;5053737;28;20029;-78
2021/10/16 10:11:02;;;;;;;25.23;10.35;;;17.00;99.90;;;;;;5055388;28;20036;-77
2021/10/16 10:13:28;;;;;;;26.38;12.18;;;17.40;99.90;;;;;;5055016;28;20056;-78
2021/10/16 10:15:55;;;;;;;25.00;11.88;;;17.20;99.90;;;;;;5054947;28;20028;-78
2021/10/16 10:21:07;;;;;;;39.40;14.77;;;17.20;99.90;;;;;;5054784;28;20064;-78
2021/10/16 10:23:33;;;;;;;20.67;12.30;;;16.50;99.90;;;;;;5054437;28;20106;-77
2021/10/16 10:26:36;;;;;;;18.40;11.75;;;17.10;99.90;;;;;;5054909;28;20449;-78
2021/10/16 10:29:08;;;;;;;19.98;11.82;;;18.30;99.90;;;;;;5053074;28;20024;-78
2021/10/16 10:31:53;;;;;;;20.63;13.05;;;17.70;99.90;;;;;;5053076;28;20048;-78
2021/10/16 10:34:28;;;;;;;;;;;17.70;99.90;;;;;;5053275;28;20075;-78
2021/10/16 10:37:01;;;;;;;16.83;11.75;;;19.70;99.70;;;;;;5053062;28;19905;-79
2021/10/16 10:39:33;;;;;;;17.05;11.07;;;21.00;95.70;;;;;;5053040;28;20064;-79
2021/10/16 10:42:22;;;;;;;11.50;8.80;;;22.30;92.30;;;;;;5054377;28;20021;-79
2021/10/16 10:44:50;;;;;;;15.10;10.13;;;22.40;91.10;;;;;;5053908;28;20037;-79
2021/10/16 10:47:35;;;;;;;13.32;10.32;;;21.10;91.60;;;;;;5053014;28;20025;-79
2021/10/16 10:50:05;;;;;;;13.38;8.90;;;22.10;91.30;;;;;;5051979;28;20025;-79
2021/10/16 10:52:56;;;;;;;15.05;9.68;;;22.40;87.40;;;;;;5052192;28;20100;-78
2021/10/16 10:55:22;;;;;;;16.73;10.48;;;21.50;88.90;;;;;;5052240;28;20029;-79
2021/10/16 10:58:01;;;;;;;20.23;15.38;;;20.90;90.80;;;;;;5051038;28;20178;-79
2021/10/16 11:00:31;;;;;;;15.10;9.85;;;21.50;90.90;;;;;;5052291;28;20024;-78
2021/10/16 11:02:57;;;;;;;14.43;10.52;;;21.70;89.20;;;;;;5052223;28;20503;-78
2021/10/16 11:05:34;;;;;;;25.30;12.50;;;21.20;90.10;;;;;;5051594;28;20025;-78
2021/10/16 11:08:11;;;;;;;19.83;17.48;;;21.30;89.50;;;;;;5054062;28;20487;-78
2021/10/16 11:10:38;;;;;;;16.50;12.13;;;20.40;91.00;;;;;;5053787;28;20025;-79
2021/10/16 11:13:18;;;;;;;20.58;18.33;;;20.20;92.50;;;;;;5053826;28;20029;-79
2021/10/16 11:15:55;;;;;;;24.13;13.10;;;21.00;91.50;;;;;;5053963;28;20040;-79
2021/10/16 11:18:21;;;;;;;20.42;15.05;;;24.10;85.60;;;;;;5053733;28;20044;-79
2021/10/16 11:20:47;;;;;;;15.80;11.48;;;23.60;80.60;;;;;;5053669;28;20483;-79
2021/10/16 11:23:23;;;;;;;16.30;9.70;;;26.20;76.10;;;;;;5053612;28;20029;-80
2021/10/16 11:25:58;;;;;;;16.20;9.10;;;27.70;69.60;;;;;;5053705;28;20025;-79
2021/10/16 11:28:24;;;;;;;13.02;8.18;;;29.60;61.70;;;;;;5053457;28;20029;-79
2021/10/16 11:30:52;;;;;;;11.57;6.70;;;29.20;60.70;;;;;;5052012;28;20112;-79
2021/10/16 11:33:19;;;;;;;11.23;8.88;;;30.70;59.30;;;;;;5051081;28;20571;-79
2021/10/16 11:35:48;;;;;;;13.25;9.32;;;31.20;54.00;;;;;;5053419;28;20024;-80
2021/10/16 11:38:17;;;;;;;10.32;7.88;;;30.50;54.40;;;;;;5053471;28;20049;-80
2021/10/16 11:40:43;;;;;;;15.32;8.05;;;30.50;54.50;;;;;;5053469;28;20021;-79
2021/10/16 11:43:19;;;;;;;11.38;7.78;;;31.80;52.40;;;;;;5053490;28;20397;-79
2021/10/16 11:45:48;;;;;;;12.70;8.07;;;31.90;52.60;;;;;;5053626;28;20036;-79
2021/10/16 11:48:17;;;;;;;11.45;8.65;;;31.40;52.20;;;;;;5053269;28;20424;-79
2021/10/16 11:50:49;;;;;;;11.32;7.80;;;33.10;50.90;;;;;;5051933;28;20029;-80
2021/10/16 11:53:23;;;;;;;12.90;8.63;;;34.30;49.70;;;;;;5051634;28;20409;-80
2021/10/16 11:56:10;;;;;;;11.25;8.25;;;34.20;48.90;;;;;;5053389;28;20017;-79
2021/10/16 11:58:38;;;;;;;11.90;8.05;;;34.60;47.40;;;;;;5051571;28;20029;-79
2021/10/16 12:01:06;;;;;;;12.23;8.32;;;33.70;48.00;;;;;;5051823;28;20075;-80
2021/10/16 12:03:40;;;;;;;13.80;8.00;;;34.80;45.80;;;;;;5053183;28;20402;-80
2021/10/16 12:06:12;;;;;;;13.77;8.88;;;36.50;46.30;;;;;;5051555;28;20075;-80
2021/10/16 12:08:42;;;;;;;12.35;10.02;;;36.80;45.20;;;;;;5053042;28;20025;-80
2021/10/16 12:11:07;;;;;;;19.35;10.20;;;35.70;44.20;;;;;;5052859;28;20048;-80
2021/10/16 12:13:40;;;;;;;13.15;9.27;;;36.50;45.40;;;;;;5051602;28;20063;-80
2021/10/16 12:16:14;;;;;;;22.20;9.93;;;36.80;43.80;;;;;;5051708;28;20112;-80
2021/10/16 12:18:54;;;;;;;13.32;9.38;;;36.40;44.40;;;;;;5053307;28;20041;-80
2021/10/16 12:21:34;;;;;;;11.77;7.80;;;36.20;44.40;;;;;;5053005;28;20120;-80
2021/10/16 12:24:02;;;;;;;10.63;7.00;;;37.10;43.20;;;;;;5051354;28;20029;-80
2021/10/16 12:26:33;;;;;;;13.95;7.55;;;37.30;43.30;;;;;;5053210;28;20482;-80
2021/10/16 12:29:01;;;;;;;12.85;7.80;;;38.70;42.90;;;;;;5051353;28;20029;-80
2021/10/16 12:31:28;;;;;;;11.07;7.72;;;36.90;42.80;;;;;;5052681;28;20048;-80
2021/10/16 12:33:55;;;;;;;11.95;8.00;;;36.20;44.60;;;;;;5053088;28;20064;-80
2021/10/16 12:37:01;;;;;;;16.30;8.57;;;37.50;42.90;;;;;;5052802;28;20022;-80
2021/10/16 12:39:38;;;;;;;12.05;8.00;;;37.40;42.00;;;;;;5052791;28;20025;-80
2021/10/16 12:42:15;;;;;;;12.43;8.10;;;35.70;43.10;;;;;;5051252;28;20501;-80
2021/10/16 12:44:46;;;;;;;11.95;7.78;;;36.20;43.20;;;;;;5053666;28;20098;-80